Terminal Aerodrome Forecast
Issued by NWS

Home | Current Version | Previous Version | Text Only | Print | Product List | Glossary On
Versions: 1 2 3 4 5 6 7 8 9 10 11 12 13 14 15 16
000
FTUS43 KBIS 050251 AAA
TAFJMS
TAF AMD
KJMS 050251Z 0503/0524 13005KT P6SM SKC
     FM051500 15011KT P6SM SCT080 BKN110
     FM051900 14019G24KT P6SM SCT045 BKN070=

USA.gov is the U.S. government's official web portal to all federal, state and local government web resources and services.